sensor_id;sensor_type;location;lat;lon;timestamp;P1;durP1;ratioP1;P2;durP2;ratioP2
1224;SDS011;602;48.000;7.840;2024-02-26T00:02:07;0.60;;;0.50;;
1224;SDS011;602;48.000;7.840;2024-02-26T00:04:34;0.70;;;0.50;;
1224;SDS011;602;48.000;7.840;2024-02-26T00:07:01;0.70;;;0.60;;
1224;SDS011;602;48.000;7.840;2024-02-26T00:09:27;0.60;;;0.43;;
1224;SDS011;602;48.000;7.840;2024-02-26T00:11:55;1.10;;;0.60;;
1224;SDS011;602;48.000;7.840;2024-02-26T00:14:23;0.60;;;0.40;;
1224;SDS011;602;48.000;7.840;2024-02-26T00:16:49;0.40;;;0.40;;
1224;SDS011;602;48.000;7.840;2024-02-26T00:19:18;0.70;;;0.50;;
1224;SDS011;602;48.000;7.840;2024-02-26T00:21:44;0.40;;;0.40;;
1224;SDS011;602;48.000;7.840;2024-02-26T00:24:11;0.40;;;0.30;;
1224;SDS011;602;48.000;7.840;2024-02-26T00:26:38;0.60;;;0.30;;
1224;SDS011;602;48.000;7.840;2024-02-26T00:29:05;0.40;;;0.40;;
1224;SDS011;602;48.000;7.840;2024-02-26T00:31:32;0.30;;;0.30;;
1224;SDS011;602;48.000;7.840;2024-02-26T00:33:59;0.70;;;0.60;;
1224;SDS011;602;48.000;7.840;2024-02-26T00:36:27;0.47;;;0.43;;
1224;SDS011;602;48.000;7.840;2024-02-26T00:38:54;0.40;;;0.40;;
1224;SDS011;602;48.000;7.840;2024-02-26T00:41:21;0.37;;;0.30;;
1224;SDS011;602;48.000;7.840;2024-02-26T00:43:48;0.40;;;0.40;;
1224;SDS011;602;48.000;7.840;2024-02-26T00:46:15;0.50;;;0.50;;
1224;SDS011;602;48.000;7.840;2024-02-26T00:48:42;0.63;;;0.40;;
1224;SDS011;602;48.000;7.840;2024-02-26T00:51:09;0.40;;;0.37;;
1224;SDS011;602;48.000;7.840;2024-02-26T00:53:37;0.90;;;0.50;;
1224;SDS011;602;48.000;7.840;2024-02-26T00:56:04;1.00;;;1.00;;
1224;SDS011;602;48.000;7.840;2024-02-26T00:58:32;0.43;;;0.40;;
1224;SDS011;602;48.000;7.840;2024-02-26T01:00:58;0.57;;;0.40;;
1224;SDS011;602;48.000;7.840;2024-02-26T01:03:25;0.43;;;0.43;;
1224;SDS011;602;48.000;7.840;2024-02-26T01:05:52;0.53;;;0.50;;
1224;SDS011;602;48.000;7.840;2024-02-26T01:08:19;0.50;;;0.40;;
1224;SDS011;602;48.000;7.840;2024-02-26T01:10:47;0.47;;;0.30;;
1224;SDS011;602;48.000;7.840;2024-02-26T01:13:14;0.50;;;0.50;;
1224;SDS011;602;48.000;7.840;2024-02-26T01:15:41;0.50;;;0.40;;
1224;SDS011;602;48.000;7.840;2024-02-26T01:18:08;0.30;;;0.30;;
1224;SDS011;602;48.000;7.840;2024-02-26T01:20:35;0.63;;;0.47;;
1224;SDS011;602;48.000;7.840;2024-02-26T01:23:02;0.40;;;0.40;;
1224;SDS011;602;48.000;7.840;2024-02-26T01:25:30;0.40;;;0.30;;
1224;SDS011;602;48.000;7.840;2024-02-26T01:27:58;0.60;;;0.40;;
1224;SDS011;602;48.000;7.840;2024-02-26T01:30:25;0.30;;;0.30;;
1224;SDS011;602;48.000;7.840;2024-02-26T01:32:52;0.30;;;0.30;;
1224;SDS011;602;48.000;7.840;2024-02-26T01:35:18;0.67;;;0.40;;
1224;SDS011;602;48.000;7.840;2024-02-26T01:37:45;0.40;;;0.30;;
1224;SDS011;602;48.000;7.840;2024-02-26T01:40:12;1.90;;;0.50;;
1224;SDS011;602;48.000;7.840;2024-02-26T01:42:43;0.50;;;0.40;;
1224;SDS011;602;48.000;7.840;2024-02-26T01:45:13;0.30;;;0.30;;
1224;SDS011;602;48.000;7.840;2024-02-26T01:47:46;0.40;;;0.40;;
1224;SDS011;602;48.000;7.840;2024-02-26T01:50:16;0.60;;;0.40;;
1224;SDS011;602;48.000;7.840;2024-02-26T01:52:43;0.40;;;0.40;;
1224;SDS011;602;48.000;7.840;2024-02-26T01:55:10;0.40;;;0.40;;
1224;SDS011;602;48.000;7.840;2024-02-26T01:57:39;0.50;;;0.50;;
1224;SDS011;602;48.000;7.840;2024-02-26T02:00:06;0.50;;;0.50;;
1224;SDS011;602;48.000;7.840;2024-02-26T02:02:35;0.87;;;0.67;;
1224;SDS011;602;48.000;7.840;2024-02-26T02:05:04;0.40;;;0.30;;
1224;SDS011;602;48.000;7.840;2024-02-26T02:07:31;0.40;;;0.30;;
1224;SDS011;602;48.000;7.840;2024-02-26T02:09:58;0.50;;;0.43;;
1224;SDS011;602;48.000;7.840;2024-02-26T02:12:26;0.93;;;0.40;;
1224;SDS011;602;48.000;7.840;2024-02-26T02:14:53;0.50;;;0.30;;
1224;SDS011;602;48.000;7.840;2024-02-26T02:17:20;2.60;;;0.50;;
1224;SDS011;602;48.000;7.840;2024-02-26T02:19:49;0.50;;;0.50;;
1224;SDS011;602;48.000;7.840;2024-02-26T02:22:17;0.57;;;0.30;;
1224;SDS011;602;48.000;7.840;2024-02-26T02:24:44;0.33;;;0.33;;
1224;SDS011;602;48.000;7.840;2024-02-26T02:27:11;0.40;;;0.30;;
1224;SDS011;602;48.000;7.840;2024-02-26T02:29:38;1.07;;;0.80;;
1224;SDS011;602;48.000;7.840;2024-02-26T02:32:05;0.40;;;0.40;;
1224;SDS011;602;48.000;7.840;2024-02-26T02:34:32;2.40;;;0.43;;
1224;SDS011;602;48.000;7.840;2024-02-26T02:37:00;0.53;;;0.50;;
1224;SDS011;602;48.000;7.840;2024-02-26T02:39:28;0.67;;;0.60;;
1224;SDS011;602;48.000;7.840;2024-02-26T02:41:55;0.70;;;0.50;;
1224;SDS011;602;48.000;7.840;2024-02-26T02:44:21;0.43;;;0.43;;
1224;SDS011;602;48.000;7.840;2024-02-26T02:46:48;1.23;;;1.10;;
1224;SDS011;602;48.000;7.840;2024-02-26T02:49:17;0.80;;;0.37;;
1224;SDS011;602;48.000;7.840;2024-02-26T02:51:43;0.50;;;0.50;;
1224;SDS011;602;48.000;7.840;2024-02-26T02:54:10;0.50;;;0.40;;
1224;SDS011;602;48.000;7.840;2024-02-26T02:56:38;1.37;;;0.60;;
1224;SDS011;602;48.000;7.840;2024-02-26T02:59:05;0.57;;;0.57;;
1224;SDS011;602;48.000;7.840;2024-02-26T03:01:32;0.63;;;0.60;;
1224;SDS011;602;48.000;7.840;2024-02-26T03:03:59;0.50;;;0.50;;
1224;SDS011;602;48.000;7.840;2024-02-26T03:06:26;0.50;;;0.50;;
1224;SDS011;602;48.000;7.840;2024-02-26T03:08:53;0.60;;;0.60;;
1224;SDS011;602;48.000;7.840;2024-02-26T03:11:20;0.30;;;0.30;;
1224;SDS011;602;48.000;7.840;2024-02-26T03:13:48;0.50;;;0.40;;
1224;SDS011;602;48.000;7.840;2024-02-26T03:16:16;0.40;;;0.40;;
1224;SDS011;602;48.000;7.840;2024-02-26T03:18:43;0.50;;;0.40;;
1224;SDS011;602;48.000;7.840;2024-02-26T03:21:10;0.60;;;0.40;;
1224;SDS011;602;48.000;7.840;2024-02-26T03:23:37;0.30;;;0.30;;
1224;SDS011;602;48.000;7.840;2024-02-26T03:26:04;0.40;;;0.40;;
1224;SDS011;602;48.000;7.840;2024-02-26T03:28:31;0.40;;;0.40;;
1224;SDS011;602;48.000;7.840;2024-02-26T03:31:00;0.87;;;0.40;;
1224;SDS011;602;48.000;7.840;2024-02-26T03:33:27;0.50;;;0.50;;
1224;SDS011;602;48.000;7.840;2024-02-26T03:35:54;0.40;;;0.30;;
1224;SDS011;602;48.000;7.840;2024-02-26T03:38:21;0.40;;;0.40;;
1224;SDS011;602;48.000;7.840;2024-02-26T03:40:47;0.40;;;0.40;;
1224;SDS011;602;48.000;7.840;2024-02-26T03:43:14;0.43;;;0.43;;
1224;SDS011;602;48.000;7.840;2024-02-26T03:45:42;0.90;;;0.70;;
1224;SDS011;602;48.000;7.840;2024-02-26T03:48:11;0.53;;;0.53;;
1224;SDS011;602;48.000;7.840;2024-02-26T03:50:37;0.50;;;0.40;;
1224;SDS011;602;48.000;7.840;2024-02-26T03:53:04;0.40;;;0.30;;
1224;SDS011;602;48.000;7.840;2024-02-26T03:55:34;0.83;;;0.50;;
1224;SDS011;602;48.000;7.840;2024-02-26T03:58:00;0.50;;;0.30;;
1224;SDS011;602;48.000;7.840;2024-02-26T04:00:28;0.47;;;0.47;;
1224;SDS011;602;48.000;7.840;2024-02-26T04:02:55;0.70;;;0.40;;
1224;SDS011;602;48.000;7.840;2024-02-26T04:05:23;0.50;;;0.50;;
1224;SDS011;602;48.000;7.840;2024-02-26T04:07:50;1.80;;;0.53;;
1224;SDS011;602;48.000;7.840;2024-02-26T04:10:17;0.40;;;0.40;;
1224;SDS011;602;48.000;7.840;2024-02-26T04:12:44;0.70;;;0.70;;
1224;SDS011;602;48.000;7.840;2024-02-26T04:15:11;0.50;;;0.30;;
1224;SDS011;602;48.000;7.840;2024-02-26T04:17:37;0.83;;;0.60;;
1224;SDS011;602;48.000;7.840;2024-02-26T04:20:05;1.13;;;0.90;;
1224;SDS011;602;48.000;7.840;2024-02-26T04:22:34;0.50;;;0.40;;
1224;SDS011;602;48.000;7.840;2024-02-26T04:25:01;0.40;;;0.40;;
1224;SDS011;602;48.000;7.840;2024-02-26T04:27:28;0.40;;;0.40;;
1224;SDS011;602;48.000;7.840;2024-02-26T04:29:54;0.50;;;0.50;;
1224;SDS011;602;48.000;7.840;2024-02-26T04:32:21;0.50;;;0.50;;
1224;SDS011;602;48.000;7.840;2024-02-26T04:34:48;0.60;;;0.60;;
1224;SDS011;602;48.000;7.840;2024-02-26T04:37:15;1.27;;;0.40;;
1224;SDS011;602;48.000;7.840;2024-02-26T04:39:43;0.50;;;0.50;;
1224;SDS011;602;48.000;7.840;2024-02-26T04:42:10;0.40;;;0.40;;
1224;SDS011;602;48.000;7.840;2024-02-26T04:44:37;0.40;;;0.30;;
1224;SDS011;602;48.000;7.840;2024-02-26T04:47:04;0.40;;;0.40;;
1224;SDS011;602;48.000;7.840;2024-02-26T04:49:32;0.30;;;0.30;;
1224;SDS011;602;48.000;7.840;2024-02-26T04:52:00;0.50;;;0.40;;
1224;SDS011;602;48.000;7.840;2024-02-26T04:54:26;0.60;;;0.57;;
1224;SDS011;602;48.000;7.840;2024-02-26T04:56:55;1.70;;;0.40;;
1224;SDS011;602;48.000;7.840;2024-02-26T04:59:21;0.40;;;0.40;;
1224;SDS011;602;48.000;7.840;2024-02-26T05:01:48;0.70;;;0.40;;
1224;SDS011;602;48.000;7.840;2024-02-26T05:04:17;0.60;;;0.60;;
1224;SDS011;602;48.000;7.840;2024-02-26T05:06:44;0.40;;;0.40;;
1224;SDS011;602;48.000;7.840;2024-02-26T05:09:11;1.10;;;0.83;;
1224;SDS011;602;48.000;7.840;2024-02-26T05:11:38;0.50;;;0.50;;
1224;SDS011;602;48.000;7.840;2024-02-26T05:14:06;0.57;;;0.50;;
1224;SDS011;602;48.000;7.840;2024-02-26T05:16:34;0.70;;;0.70;;
1224;SDS011;602;48.000;7.840;2024-02-26T05:19:00;0.63;;;0.63;;
1224;SDS011;602;48.000;7.840;2024-02-26T05:21:28;0.50;;;0.50;;
1224;SDS011;602;48.000;7.840;2024-02-26T05:23:54;1.33;;;1.13;;
1224;SDS011;602;48.000;7.840;2024-02-26T05:26:21;0.40;;;0.40;;
1224;SDS011;602;48.000;7.840;2024-02-26T05:28:48;0.70;;;0.70;;
1224;SDS011;602;48.000;7.840;2024-02-26T05:31:17;0.43;;;0.43;;
1224;SDS011;602;48.000;7.840;2024-02-26T05:33:44;0.80;;;0.70;;
1224;SDS011;602;48.000;7.840;2024-02-26T05:36:17;0.80;;;0.73;;
1224;SDS011;602;48.000;7.840;2024-02-26T05:38:44;0.50;;;0.50;;
1224;SDS011;602;48.000;7.840;2024-02-26T05:41:12;0.40;;;0.37;;
1224;SDS011;602;48.000;7.840;2024-02-26T05:43:39;0.50;;;0.40;;
1224;SDS011;602;48.000;7.840;2024-02-26T05:46:05;0.53;;;0.53;;
1224;SDS011;602;48.000;7.840;2024-02-26T05:48:34;0.40;;;0.40;;
1224;SDS011;602;48.000;7.840;2024-02-26T05:51:00;0.63;;;0.63;;
1224;SDS011;602;48.000;7.840;2024-02-26T05:53:28;0.40;;;0.37;;
1224;SDS011;602;48.000;7.840;2024-02-26T05:55:54;0.83;;;0.60;;
1224;SDS011;602;48.000;7.840;2024-02-26T05:58:21;0.40;;;0.40;;
1224;SDS011;602;48.000;7.840;2024-02-26T06:00:48;0.40;;;0.30;;
1224;SDS011;602;48.000;7.840;2024-02-26T06:03:15;0.60;;;0.40;;
1224;SDS011;602;48.000;7.840;2024-02-26T06:05:43;0.30;;;0.30;;
1224;SDS011;602;48.000;7.840;2024-02-26T06:08:10;0.33;;;0.33;;
1224;SDS011;602;48.000;7.840;2024-02-26T06:10:37;0.70;;;0.47;;
1224;SDS011;602;48.000;7.840;2024-02-26T06:13:04;0.50;;;0.40;;
1224;SDS011;602;48.000;7.840;2024-02-26T06:15:31;1.07;;;0.33;;
1224;SDS011;602;48.000;7.840;2024-02-26T06:17:58;0.50;;;0.30;;
1224;SDS011;602;48.000;7.840;2024-02-26T06:20:25;0.70;;;0.70;;
1224;SDS011;602;48.000;7.840;2024-02-26T06:22:53;0.90;;;0.47;;
1224;SDS011;602;48.000;7.840;2024-02-26T06:25:20;0.40;;;0.40;;
1224;SDS011;602;48.000;7.840;2024-02-26T06:27:47;0.60;;;0.50;;
1224;SDS011;602;48.000;7.840;2024-02-26T06:30:14;0.30;;;0.30;;
1224;SDS011;602;48.000;7.840;2024-02-26T06:32:40;0.40;;;0.40;;
1224;SDS011;602;48.000;7.840;2024-02-26T06:35:07;0.70;;;0.30;;
1224;SDS011;602;48.000;7.840;2024-02-26T06:37:36;0.63;;;0.60;;
1224;SDS011;602;48.000;7.840;2024-02-26T06:40:05;0.73;;;0.53;;
1224;SDS011;602;48.000;7.840;2024-02-26T06:42:33;0.70;;;0.40;;
1224;SDS011;602;48.000;7.840;2024-02-26T06:45:00;0.60;;;0.40;;
1224;SDS011;602;48.000;7.840;2024-02-26T06:47:27;0.40;;;0.37;;
1224;SDS011;602;48.000;7.840;2024-02-26T06:49:53;0.40;;;0.40;;
1224;SDS011;602;48.000;7.840;2024-02-26T06:52:23;0.30;;;0.30;;
1224;SDS011;602;48.000;7.840;2024-02-26T06:54:50;0.37;;;0.37;;
1224;SDS011;602;48.000;7.840;2024-02-26T06:57:19;2.87;;;0.50;;
1224;SDS011;602;48.000;7.840;2024-02-26T06:59:46;0.90;;;0.47;;
1224;SDS011;602;48.000;7.840;2024-02-26T07:02:14;1.13;;;0.70;;
1224;SDS011;602;48.000;7.840;2024-02-26T07:04:41;0.40;;;0.40;;
1224;SDS011;602;48.000;7.840;2024-02-26T07:07:09;0.47;;;0.47;;
1224;SDS011;602;48.000;7.840;2024-02-26T07:09:36;0.50;;;0.50;;
1224;SDS011;602;48.000;7.840;2024-02-26T07:12:03;0.40;;;0.40;;
1224;SDS011;602;48.000;7.840;2024-02-26T07:14:32;0.40;;;0.40;;
1224;SDS011;602;48.000;7.840;2024-02-26T07:16:59;1.63;;;0.70;;
1224;SDS011;602;48.000;7.840;2024-02-26T07:19:25;0.50;;;0.50;;
1224;SDS011;602;48.000;7.840;2024-02-26T07:21:52;0.83;;;0.50;;
1224;SDS011;602;48.000;7.840;2024-02-26T07:24:20;0.80;;;0.63;;
1224;SDS011;602;48.000;7.840;2024-02-26T07:26:47;0.60;;;0.60;;
1224;SDS011;602;48.000;7.840;2024-02-26T07:29:13;0.43;;;0.43;;
1224;SDS011;602;48.000;7.840;2024-02-26T07:31:42;0.60;;;0.60;;
1224;SDS011;602;48.000;7.840;2024-02-26T07:34:08;0.70;;;0.50;;
1224;SDS011;602;48.000;7.840;2024-02-26T07:36:35;0.40;;;0.40;;
1224;SDS011;602;48.000;7.840;2024-02-26T07:39:02;0.50;;;0.50;;
1224;SDS011;602;48.000;7.840;2024-02-26T07:41:30;0.40;;;0.37;;
1224;SDS011;602;48.000;7.840;2024-02-26T07:43:57;0.53;;;0.53;;
1224;SDS011;602;48.000;7.840;2024-02-26T07:46:24;0.40;;;0.40;;
1224;SDS011;602;48.000;7.840;2024-02-26T07:48:52;0.47;;;0.47;;
1224;SDS011;602;48.000;7.840;2024-02-26T07:51:19;0.30;;;0.30;;
1224;SDS011;602;48.000;7.840;2024-02-26T07:53:47;0.40;;;0.40;;
1224;SDS011;602;48.000;7.840;2024-02-26T07:56:14;0.80;;;0.60;;
1224;SDS011;602;48.000;7.840;2024-02-26T07:58:41;1.43;;;0.63;;
1224;SDS011;602;48.000;7.840;2024-02-26T08:01:08;1.07;;;0.60;;
1224;SDS011;602;48.000;7.840;2024-02-26T08:03:35;0.50;;;0.50;;
1224;SDS011;602;48.000;7.840;2024-02-26T08:06:05;0.60;;;0.60;;
1224;SDS011;602;48.000;7.840;2024-02-26T08:08:32;0.50;;;0.40;;
1224;SDS011;602;48.000;7.840;2024-02-26T08:10:59;0.60;;;0.50;;
1224;SDS011;602;48.000;7.840;2024-02-26T08:13:26;0.87;;;0.40;;
1224;SDS011;602;48.000;7.840;2024-02-26T08:15:53;0.70;;;0.53;;
1224;SDS011;602;48.000;7.840;2024-02-26T08:18:20;1.00;;;0.80;;
1224;SDS011;602;48.000;7.840;2024-02-26T08:20:47;0.37;;;0.37;;
1224;SDS011;602;48.000;7.840;2024-02-26T08:23:15;0.60;;;0.50;;
1224;SDS011;602;48.000;7.840;2024-02-26T08:25:42;0.43;;;0.43;;
1224;SDS011;602;48.000;7.840;2024-02-26T08:28:09;1.13;;;0.57;;
1224;SDS011;602;48.000;7.840;2024-02-26T08:30:38;0.73;;;0.67;;
1224;SDS011;602;48.000;7.840;2024-02-26T08:33:05;0.40;;;0.40;;
1224;SDS011;602;48.000;7.840;2024-02-26T08:35:32;0.40;;;0.40;;
1224;SDS011;602;48.000;7.840;2024-02-26T08:37:58;0.60;;;0.60;;
1224;SDS011;602;48.000;7.840;2024-02-26T08:40:26;0.50;;;0.40;;
1224;SDS011;602;48.000;7.840;2024-02-26T08:42:53;0.40;;;0.40;;
1224;SDS011;602;48.000;7.840;2024-02-26T08:45:20;0.63;;;0.63;;
1224;SDS011;602;48.000;7.840;2024-02-26T08:47:47;1.23;;;0.50;;
1224;SDS011;602;48.000;7.840;2024-02-26T08:50:14;0.47;;;0.47;;
1224;SDS011;602;48.000;7.840;2024-02-26T08:52:41;0.50;;;0.50;;
1224;SDS011;602;48.000;7.840;2024-02-26T08:55:09;0.60;;;0.43;;
1224;SDS011;602;48.000;7.840;2024-02-26T08:57:37;1.83;;;0.70;;
1224;SDS011;602;48.000;7.840;2024-02-26T09:00:04;1.13;;;0.70;;
1224;SDS011;602;48.000;7.840;2024-02-26T09:02:32;0.60;;;0.60;;
1224;SDS011;602;48.000;7.840;2024-02-26T09:04:59;0.80;;;0.50;;
1224;SDS011;602;48.000;7.840;2024-02-26T09:07:26;1.73;;;0.90;;
1224;SDS011;602;48.000;7.840;2024-02-26T09:09:53;0.70;;;0.53;;
1224;SDS011;602;48.000;7.840;2024-02-26T09:12:20;0.80;;;0.50;;
1224;SDS011;602;48.000;7.840;2024-02-26T09:14:48;1.27;;;1.17;;
1224;SDS011;602;48.000;7.840;2024-02-26T09:17:15;0.90;;;0.80;;
1224;SDS011;602;48.000;7.840;2024-02-26T09:19:42;1.00;;;1.00;;
1224;SDS011;602;48.000;7.840;2024-02-26T09:22:09;2.17;;;1.23;;
1224;SDS011;602;48.000;7.840;2024-02-26T09:24:36;1.13;;;1.03;;
1224;SDS011;602;48.000;7.840;2024-02-26T09:27:03;2.30;;;0.97;;
1224;SDS011;602;48.000;7.840;2024-02-26T09:29:30;1.03;;;0.93;;
1224;SDS011;602;48.000;7.840;2024-02-26T09:31:59;1.63;;;1.53;;
1224;SDS011;602;48.000;7.840;2024-02-26T09:34:26;0.80;;;0.80;;
1224;SDS011;602;48.000;7.840;2024-02-26T09:36:53;0.93;;;0.80;;
1224;SDS011;602;48.000;7.840;2024-02-26T09:39:20;0.80;;;0.80;;
1224;SDS011;602;48.000;7.840;2024-02-26T09:41:47;0.67;;;0.67;;
1224;SDS011;602;48.000;7.840;2024-02-26T09:44:15;1.10;;;1.00;;
1224;SDS011;602;48.000;7.840;2024-02-26T09:46:45;1.53;;;0.60;;
1224;SDS011;602;48.000;7.840;2024-02-26T09:49:16;2.63;;;1.30;;
1224;SDS011;602;48.000;7.840;2024-02-26T09:51:44;1.77;;;1.67;;
1224;SDS011;602;48.000;7.840;2024-02-26T09:54:13;1.23;;;1.20;;
1224;SDS011;602;48.000;7.840;2024-02-26T09:56:42;1.50;;;1.20;;
1224;SDS011;602;48.000;7.840;2024-02-26T09:59:13;1.97;;;1.57;;
1224;SDS011;602;48.000;7.840;2024-02-26T10:01:44;5.93;;;1.10;;
1224;SDS011;602;48.000;7.840;2024-02-26T10:04:12;1.50;;;1.40;;
1224;SDS011;602;48.000;7.840;2024-02-26T10:06:41;1.40;;;1.30;;
1224;SDS011;602;48.000;7.840;2024-02-26T10:09:09;1.57;;;1.10;;
1224;SDS011;602;48.000;7.840;2024-02-26T10:11:37;1.10;;;1.00;;
1224;SDS011;602;48.000;7.840;2024-02-26T10:14:08;1.63;;;1.30;;
1224;SDS011;602;48.000;7.840;2024-02-26T10:16:35;5.20;;;1.20;;
1224;SDS011;602;48.000;7.840;2024-02-26T10:19:02;1.93;;;1.43;;
1224;SDS011;602;48.000;7.840;2024-02-26T10:21:29;2.17;;;1.97;;
1224;SDS011;602;48.000;7.840;2024-02-26T10:23:56;1.33;;;1.23;;
1224;SDS011;602;48.000;7.840;2024-02-26T10:26:23;1.80;;;1.60;;
1224;SDS011;602;48.000;7.840;2024-02-26T10:28:50;2.87;;;1.73;;
1224;SDS011;602;48.000;7.840;2024-02-26T10:31:17;1.60;;;1.30;;
1224;SDS011;602;48.000;7.840;2024-02-26T10:33:44;1.30;;;1.20;;
1224;SDS011;602;48.000;7.840;2024-02-26T10:36:11;1.77;;;1.57;;
1224;SDS011;602;48.000;7.840;2024-02-26T10:38:38;1.40;;;1.30;;
1224;SDS011;602;48.000;7.840;2024-02-26T10:41:07;1.43;;;1.27;;
1224;SDS011;602;48.000;7.840;2024-02-26T10:43:39;2.03;;;1.60;;
1224;SDS011;602;48.000;7.840;2024-02-26T10:46:07;3.90;;;1.47;;
1224;SDS011;602;48.000;7.840;2024-02-26T10:48:35;1.50;;;1.10;;
1224;SDS011;602;48.000;7.840;2024-02-26T10:51:02;1.13;;;1.03;;
1224;SDS011;602;48.000;7.840;2024-02-26T10:53:30;1.50;;;1.40;;
1224;SDS011;602;48.000;7.840;2024-02-26T10:56:00;2.90;;;1.33;;
1224;SDS011;602;48.000;7.840;2024-02-26T10:58:31;1.10;;;1.00;;
1224;SDS011;602;48.000;7.840;2024-02-26T11:00:58;0.60;;;0.60;;
1224;SDS011;602;48.000;7.840;2024-02-26T11:03:25;1.60;;;1.10;;
1224;SDS011;602;48.000;7.840;2024-02-26T11:05:57;1.17;;;1.07;;
1224;SDS011;602;48.000;7.840;2024-02-26T11:08:24;0.83;;;0.83;;
1224;SDS011;602;48.000;7.840;2024-02-26T11:10:53;0.80;;;0.70;;
1224;SDS011;602;48.000;7.840;2024-02-26T11:13:21;1.23;;;1.13;;
1224;SDS011;602;48.000;7.840;2024-02-26T11:15:52;1.20;;;0.97;;
1224;SDS011;602;48.000;7.840;2024-02-26T11:18:22;1.03;;;0.93;;
1224;SDS011;602;48.000;7.840;2024-02-26T11:20:51;1.13;;;0.80;;
1224;SDS011;602;48.000;7.840;2024-02-26T11:23:22;1.73;;;1.20;;
1224;SDS011;602;48.000;7.840;2024-02-26T11:25:49;0.63;;;0.63;;
1224;SDS011;602;48.000;7.840;2024-02-26T11:28:18;0.73;;;0.70;;
1224;SDS011;602;48.000;7.840;2024-02-26T11:30:47;0.90;;;0.80;;
1224;SDS011;602;48.000;7.840;2024-02-26T11:33:16;1.00;;;0.90;;
1224;SDS011;602;48.000;7.840;2024-02-26T11:35:43;2.20;;;0.87;;
1224;SDS011;602;48.000;7.840;2024-02-26T11:38:16;0.70;;;0.70;;
1224;SDS011;602;48.000;7.840;2024-02-26T11:40:45;1.80;;;1.30;;
1224;SDS011;602;48.000;7.840;2024-02-26T11:43:13;1.30;;;1.20;;
1224;SDS011;602;48.000;7.840;2024-02-26T11:45:49;2.77;;;1.07;;
1224;SDS011;602;48.000;7.840;2024-02-26T11:48:22;2.07;;;1.37;;
1224;SDS011;602;48.000;7.840;2024-02-26T11:50:50;1.13;;;0.90;;
1224;SDS011;602;48.000;7.840;2024-02-26T11:53:22;1.20;;;1.00;;
1224;SDS011;602;48.000;7.840;2024-02-26T11:58:39;1.53;;;1.03;;
1224;SDS011;602;48.000;7.840;2024-02-26T12:04:05;2.70;;;1.57;;
1224;SDS011;602;48.000;7.840;2024-02-26T12:06:43;0.87;;;0.83;;
1224;SDS011;602;48.000;7.840;2024-02-26T12:09:12;1.20;;;1.10;;
1224;SDS011;602;48.000;7.840;2024-02-26T12:11:39;1.27;;;1.10;;
1224;SDS011;602;48.000;7.840;2024-02-26T12:14:08;1.80;;;1.00;;
1224;SDS011;602;48.000;7.840;2024-02-26T12:16:36;1.60;;;1.27;;
1224;SDS011;602;48.000;7.840;2024-02-26T12:19:06;2.50;;;1.63;;
1224;SDS011;602;48.000;7.840;2024-02-26T12:21:34;1.23;;;1.13;;
1224;SDS011;602;48.000;7.840;2024-02-26T12:24:09;1.10;;;1.00;;
1224;SDS011;602;48.000;7.840;2024-02-26T12:26:37;1.60;;;1.30;;
1224;SDS011;602;48.000;7.840;2024-02-26T12:29:04;1.57;;;0.80;;
1224;SDS011;602;48.000;7.840;2024-02-26T12:31:31;1.10;;;1.00;;
1224;SDS011;602;48.000;7.840;2024-02-26T12:33:58;1.37;;;1.27;;
1224;SDS011;602;48.000;7.840;2024-02-26T12:36:27;2.30;;;1.33;;
1224;SDS011;602;48.000;7.840;2024-02-26T12:38:54;1.50;;;1.10;;
1224;SDS011;602;48.000;7.840;2024-02-26T12:41:22;2.60;;;1.53;;
1224;SDS011;602;48.000;7.840;2024-02-26T12:43:49;0.90;;;0.90;;
1224;SDS011;602;48.000;7.840;2024-02-26T12:46:16;1.40;;;1.30;;
1224;SDS011;602;48.000;7.840;2024-02-26T12:48:43;1.67;;;1.20;;
1224;SDS011;602;48.000;7.840;2024-02-26T12:51:11;1.90;;;1.40;;
1224;SDS011;602;48.000;7.840;2024-02-26T12:53:40;1.63;;;1.53;;
1224;SDS011;602;48.000;7.840;2024-02-26T12:56:08;1.23;;;1.10;;
1224;SDS011;602;48.000;7.840;2024-02-26T12:58:37;1.87;;;1.30;;
1224;SDS011;602;48.000;7.840;2024-02-26T13:01:06;0.80;;;0.80;;
1224;SDS011;602;48.000;7.840;2024-02-26T13:03:33;1.60;;;1.50;;
1224;SDS011;602;48.000;7.840;2024-02-26T13:06:02;1.70;;;1.20;;
1224;SDS011;602;48.000;7.840;2024-02-26T13:08:31;1.30;;;1.20;;
1224;SDS011;602;48.000;7.840;2024-02-26T13:10:59;1.60;;;1.30;;
1224;SDS011;602;48.000;7.840;2024-02-26T13:13:26;1.10;;;1.00;;
1224;SDS011;602;48.000;7.840;2024-02-26T13:16:00;1.23;;;1.13;;
1224;SDS011;602;48.000;7.840;2024-02-26T13:18:29;1.70;;;1.30;;
1224;SDS011;602;48.000;7.840;2024-02-26T13:21:06;1.50;;;1.20;;
1224;SDS011;602;48.000;7.840;2024-02-26T13:23:34;1.60;;;1.50;;
1224;SDS011;602;48.000;7.840;2024-02-26T13:26:03;1.60;;;1.10;;
1224;SDS011;602;48.000;7.840;2024-02-26T13:28:30;0.90;;;0.90;;
1224;SDS011;602;48.000;7.840;2024-02-26T13:30:58;1.20;;;1.13;;
1224;SDS011;602;48.000;7.840;2024-02-26T13:33:27;1.10;;;1.00;;
1224;SDS011;602;48.000;7.840;2024-02-26T13:35:58;3.03;;;1.40;;
1224;SDS011;602;48.000;7.840;2024-02-26T13:38:25;0.80;;;0.80;;
1224;SDS011;602;48.000;7.840;2024-02-26T13:40:53;0.90;;;0.90;;
1224;SDS011;602;48.000;7.840;2024-02-26T13:43:22;0.83;;;0.83;;
1224;SDS011;602;48.000;7.840;2024-02-26T13:45:49;1.23;;;1.10;;
1224;SDS011;602;48.000;7.840;2024-02-26T13:48:15;1.90;;;1.10;;
1224;SDS011;602;48.000;7.840;2024-02-26T13:50:42;1.83;;;1.00;;
1224;SDS011;602;48.000;7.840;2024-02-26T13:53:10;1.57;;;1.40;;
1224;SDS011;602;48.000;7.840;2024-02-26T13:55:38;0.90;;;0.90;;
1224;SDS011;602;48.000;7.840;2024-02-26T13:58:07;0.90;;;0.90;;
1224;SDS011;602;48.000;7.840;2024-02-26T14:00:38;1.80;;;1.20;;
1224;SDS011;602;48.000;7.840;2024-02-26T14:03:06;1.30;;;1.20;;
1224;SDS011;602;48.000;7.840;2024-02-26T14:05:33;2.00;;;1.00;;
1224;SDS011;602;48.000;7.840;2024-02-26T14:08:00;1.07;;;0.97;;
1224;SDS011;602;48.000;7.840;2024-02-26T14:10:27;1.07;;;0.70;;
1224;SDS011;602;48.000;7.840;2024-02-26T14:12:53;0.97;;;0.90;;
1224;SDS011;602;48.000;7.840;2024-02-26T14:15:20;0.93;;;0.90;;
1224;SDS011;602;48.000;7.840;2024-02-26T14:17:50;0.73;;;0.70;;
1224;SDS011;602;48.000;7.840;2024-02-26T14:20:21;1.13;;;1.03;;
1224;SDS011;602;48.000;7.840;2024-02-26T14:22:48;1.77;;;1.10;;
1224;SDS011;602;48.000;7.840;2024-02-26T14:25:16;0.77;;;0.77;;
1224;SDS011;602;48.000;7.840;2024-02-26T14:27:43;0.90;;;0.90;;
1224;SDS011;602;48.000;7.840;2024-02-26T14:30:10;2.53;;;1.10;;
1224;SDS011;602;48.000;7.840;2024-02-26T14:32:37;1.13;;;0.90;;
1224;SDS011;602;48.000;7.840;2024-02-26T14:35:07;0.60;;;0.60;;
1224;SDS011;602;48.000;7.840;2024-02-26T14:37:35;1.13;;;0.80;;
1224;SDS011;602;48.000;7.840;2024-02-26T14:40:02;1.30;;;1.10;;
1224;SDS011;602;48.000;7.840;2024-02-26T14:42:30;0.77;;;0.77;;
1224;SDS011;602;48.000;7.840;2024-02-26T14:44:57;0.70;;;0.70;;
1224;SDS011;602;48.000;7.840;2024-02-26T14:47:24;1.13;;;1.03;;
1224;SDS011;602;48.000;7.840;2024-02-26T14:49:51;1.60;;;0.90;;
1224;SDS011;602;48.000;7.840;2024-02-26T14:52:19;1.03;;;0.67;;
1224;SDS011;602;48.000;7.840;2024-02-26T14:54:46;0.63;;;0.63;;
1224;SDS011;602;48.000;7.840;2024-02-26T14:57:16;0.80;;;0.80;;
1224;SDS011;602;48.000;7.840;2024-02-26T14:59:43;0.77;;;0.77;;
1224;SDS011;602;48.000;7.840;2024-02-26T15:02:10;1.53;;;0.90;;
1224;SDS011;602;48.000;7.840;2024-02-26T15:04:37;1.20;;;1.10;;
1224;SDS011;602;48.000;7.840;2024-02-26T15:07:04;0.93;;;0.83;;
1224;SDS011;602;48.000;7.840;2024-02-26T15:09:33;4.10;;;0.97;;
1224;SDS011;602;48.000;7.840;2024-02-26T15:12:00;1.40;;;1.00;;
1224;SDS011;602;48.000;7.840;2024-02-26T15:14:27;1.87;;;1.30;;
1224;SDS011;602;48.000;7.840;2024-02-26T15:16:54;1.13;;;1.03;;
1224;SDS011;602;48.000;7.840;2024-02-26T15:19:21;1.00;;;1.00;;
1224;SDS011;602;48.000;7.840;2024-02-26T15:21:48;1.80;;;1.60;;
1224;SDS011;602;48.000;7.840;2024-02-26T15:24:15;1.47;;;1.37;;
1224;SDS011;602;48.000;7.840;2024-02-26T15:26:43;1.30;;;1.20;;
1224;SDS011;602;48.000;7.840;2024-02-26T15:29:10;1.13;;;1.13;;
1224;SDS011;602;48.000;7.840;2024-02-26T15:31:37;1.13;;;0.90;;
1224;SDS011;602;48.000;7.840;2024-02-26T15:34:04;1.23;;;0.97;;
1224;SDS011;602;48.000;7.840;2024-02-26T15:36:31;1.70;;;1.60;;
1224;SDS011;602;48.000;7.840;2024-02-26T15:38:59;2.10;;;1.57;;